sensor_id;sensor_type;location;lat;lon;timestamp;temperature;humidity
35593;DHT22;64447;52.140;5.602;2023-03-31T00:01:07;12.10;99.90
35593;DHT22;64447;52.140;5.602;2023-03-31T00:03:33;12.00;99.90
35593;DHT22;64447;52.140;5.602;2023-03-31T00:06:03;11.90;99.90
35593;DHT22;64447;52.140;5.602;2023-03-31T00:08:30;11.90;99.90
35593;DHT22;64447;52.140;5.602;2023-03-31T00:14:21;12.10;99.90
35593;DHT22;64447;52.140;5.602;2023-03-31T00:16:47;12.30;99.90
35593;DHT22;64447;52.140;5.602;2023-03-31T00:19:13;12.40;99.90
35593;DHT22;64447;52.140;5.602;2023-03-31T00:21:45;12.40;99.90
35593;DHT22;64447;52.140;5.602;2023-03-31T00:24:11;12.40;99.90
35593;DHT22;64447;52.140;5.602;2023-03-31T00:26:37;12.50;99.90
35593;DHT22;64447;52.140;5.602;2023-03-31T00:29:05;12.50;99.90
35593;DHT22;64447;52.140;5.602;2023-03-31T00:31:32;12.50;99.90
35593;DHT22;64447;52.140;5.602;2023-03-31T00:33:58;12.90;99.90
35593;DHT22;64447;52.140;5.602;2023-03-31T00:36:24;12.30;99.90
35593;DHT22;64447;52.140;5.602;2023-03-31T00:38:57;12.10;99.90
35593;DHT22;64447;52.140;5.602;2023-03-31T00:41:25;12.10;99.90
35593;DHT22;64447;52.140;5.602;2023-03-31T00:47:00;12.20;99.90
35593;DHT22;64447;52.140;5.602;2023-03-31T00:49:32;12.20;99.90
35593;DHT22;64447;52.140;5.602;2023-03-31T00:52:17;12.20;99.90
35593;DHT22;64447;52.140;5.602;2023-03-31T00:54:50;12.30;99.90
35593;DHT22;64447;52.140;5.602;2023-03-31T00:57:18;12.40;99.90
35593;DHT22;64447;52.140;5.602;2023-03-31T00:59:53;12.40;99.90
35593;DHT22;64447;52.140;5.602;2023-03-31T01:02:21;12.20;99.90
35593;DHT22;64447;52.140;5.602;2023-03-31T01:04:53;12.00;99.90
35593;DHT22;64447;52.140;5.602;2023-03-31T01:07:26;12.00;99.90
35593;DHT22;64447;52.140;5.602;2023-03-31T01:09:57;11.90;99.90
35593;DHT22;64447;52.140;5.602;2023-03-31T01:12:26;11.90;99.90
35593;DHT22;64447;52.140;5.602;2023-03-31T01:14:52;11.90;99.90
35593;DHT22;64447;52.140;5.602;2023-03-31T01:17:19;11.90;99.90
35593;DHT22;64447;52.140;5.602;2023-03-31T01:36:41;11.80;99.90
35593;DHT22;64447;52.140;5.602;2023-03-31T01:45:57;11.70;99.90
35593;DHT22;64447;52.140;5.602;2023-03-31T01:51:00;11.70;99.90
35593;DHT22;64447;52.140;5.602;2023-03-31T02:02:15;11.80;99.90
35593;DHT22;64447;52.140;5.602;2023-03-31T02:04:46;11.60;99.90
35593;DHT22;64447;52.140;5.602;2023-03-31T02:07:28;11.70;99.90
35593;DHT22;64447;52.140;5.602;2023-03-31T02:09:59;11.70;99.90
35593;DHT22;64447;52.140;5.602;2023-03-31T02:12:27;11.60;99.90
35593;DHT22;64447;52.140;5.602;2023-03-31T02:14:56;11.50;99.90
35593;DHT22;64447;52.140;5.602;2023-03-31T02:17:24;11.50;99.90
35593;DHT22;64447;52.140;5.602;2023-03-31T02:19:56;11.50;99.90
35593;DHT22;64447;52.140;5.602;2023-03-31T02:22:23;11.50;99.90
35593;DHT22;64447;52.140;5.602;2023-03-31T02:24:50;11.40;99.90
35593;DHT22;64447;52.140;5.602;2023-03-31T02:27:30;11.60;99.90
35593;DHT22;64447;52.140;5.602;2023-03-31T02:29:58;11.50;99.90
35593;DHT22;64447;52.140;5.602;2023-03-31T02:32:39;11.50;99.90
35593;DHT22;64447;52.140;5.602;2023-03-31T02:35:08;11.50;99.90
35593;DHT22;64447;52.140;5.602;2023-03-31T02:37:35;11.50;99.90
35593;DHT22;64447;52.140;5.602;2023-03-31T02:40:08;11.40;99.90
35593;DHT22;64447;52.140;5.602;2023-03-31T02:42:37;11.50;99.90
35593;DHT22;64447;52.140;5.602;2023-03-31T02:45:05;11.50;99.90
35593;DHT22;64447;52.140;5.602;2023-03-31T02:47:31;11.60;99.90
35593;DHT22;64447;52.140;5.602;2023-03-31T02:49:59;11.60;99.90
35593;DHT22;64447;52.140;5.602;2023-03-31T02:55:45;11.70;99.90
35593;DHT22;64447;52.140;5.602;2023-03-31T03:01:18;11.60;99.90
35593;DHT22;64447;52.140;5.602;2023-03-31T03:14:43;11.30;99.90
35593;DHT22;64447;52.140;5.602;2023-03-31T03:17:26;11.30;99.90
35593;DHT22;64447;52.140;5.602;2023-03-31T03:19:54;11.10;99.90
35593;DHT22;64447;52.140;5.602;2023-03-31T03:22:21;11.10;99.90
35593;DHT22;64447;52.140;5.602;2023-03-31T03:28:09;11.10;99.90
35593;DHT22;64447;52.140;5.602;2023-03-31T03:30:35;11.30;99.90
35593;DHT22;64447;52.140;5.602;2023-03-31T03:33:01;11.30;99.90
35593;DHT22;64447;52.140;5.602;2023-03-31T03:35:27;11.30;99.90
35593;DHT22;64447;52.140;5.602;2023-03-31T03:37:53;11.50;99.90
35593;DHT22;64447;52.140;5.602;2023-03-31T03:43:41;11.70;99.90
35593;DHT22;64447;52.140;5.602;2023-03-31T03:46:06;12.10;99.90
35593;DHT22;64447;52.140;5.602;2023-03-31T03:48:32;11.80;99.90
35593;DHT22;64447;52.140;5.602;2023-03-31T03:50:59;11.80;99.90
35593;DHT22;64447;52.140;5.602;2023-03-31T03:53:25;11.70;99.90
35593;DHT22;64447;52.140;5.602;2023-03-31T03:59:13;11.50;99.90
35593;DHT22;64447;52.140;5.602;2023-03-31T04:01:39;11.40;99.90
35593;DHT22;64447;52.140;5.602;2023-03-31T04:04:05;11.60;99.90
35593;DHT22;64447;52.140;5.602;2023-03-31T04:06:31;11.60;99.90
35593;DHT22;64447;52.140;5.602;2023-03-31T04:08:56;11.90;99.90
35593;DHT22;64447;52.140;5.602;2023-03-31T04:14:43;11.50;99.90
35593;DHT22;64447;52.140;5.602;2023-03-31T04:17:09;11.30;99.90
35593;DHT22;64447;52.140;5.602;2023-03-31T04:19:40;11.30;99.90
35593;DHT22;64447;52.140;5.602;2023-03-31T04:22:06;11.20;99.90
35593;DHT22;64447;52.140;5.602;2023-03-31T04:24:36;11.30;99.90
35593;DHT22;64447;52.140;5.602;2023-03-31T04:30:26;11.50;99.90
35593;DHT22;64447;52.140;5.602;2023-03-31T04:33:00;11.50;99.90
35593;DHT22;64447;52.140;5.602;2023-03-31T04:35:28;11.50;99.90
35593;DHT22;64447;52.140;5.602;2023-03-31T04:38:12;11.50;99.90
35593;DHT22;64447;52.140;5.602;2023-03-31T04:40:38;11.90;99.90
35593;DHT22;64447;52.140;5.602;2023-03-31T04:43:05;11.60;99.90
35593;DHT22;64447;52.140;5.602;2023-03-31T04:45:31;11.60;99.90
35593;DHT22;64447;52.140;5.602;2023-03-31T04:47:56;11.60;99.90
35593;DHT22;64447;52.140;5.602;2023-03-31T04:50:22;11.50;99.90
35593;DHT22;64447;52.140;5.602;2023-03-31T04:52:48;11.80;99.90
35593;DHT22;64447;52.140;5.602;2023-03-31T04:55:13;11.70;99.90
35593;DHT22;64447;52.140;5.602;2023-03-31T05:01:01;11.40;99.90
35593;DHT22;64447;52.140;5.602;2023-03-31T05:03:26;11.50;99.90
35593;DHT22;64447;52.140;5.602;2023-03-31T05:05:52;11.40;99.90
35593;DHT22;64447;52.140;5.602;2023-03-31T05:08:18;11.20;99.90
35593;DHT22;64447;52.140;5.602;2023-03-31T05:10:43;11.40;99.90
35593;DHT22;64447;52.140;5.602;2023-03-31T05:13:10;11.10;99.90
35593;DHT22;64447;52.140;5.602;2023-03-31T05:15:38;11.20;99.90
35593;DHT22;64447;52.140;5.602;2023-03-31T05:18:05;11.20;99.90
35593;DHT22;64447;52.140;5.602;2023-03-31T05:20:32;11.20;99.90
35593;DHT22;64447;52.140;5.602;2023-03-31T05:22:57;11.30;99.90
35593;DHT22;64447;52.140;5.602;2023-03-31T05:25:23;11.30;99.90
35593;DHT22;64447;52.140;5.602;2023-03-31T05:31:10;11.20;99.90
35593;DHT22;64447;52.140;5.602;2023-03-31T05:33:37;11.20;99.90
35593;DHT22;64447;52.140;5.602;2023-03-31T05:36:07;11.30;99.90
35593;DHT22;64447;52.140;5.602;2023-03-31T05:38:36;11.30;99.90
35593;DHT22;64447;52.140;5.602;2023-03-31T05:41:02;11.40;99.90
35593;DHT22;64447;52.140;5.602;2023-03-31T05:43:28;11.30;99.90
35593;DHT22;64447;52.140;5.602;2023-03-31T05:45:53;11.30;99.90
35593;DHT22;64447;52.140;5.602;2023-03-31T05:48:19;11.20;99.90
35593;DHT22;64447;52.140;5.602;2023-03-31T05:50:45;11.20;99.90
35593;DHT22;64447;52.140;5.602;2023-03-31T05:53:11;11.20;99.90
35593;DHT22;64447;52.140;5.602;2023-03-31T05:55:37;11.20;99.90
35593;DHT22;64447;52.140;5.602;2023-03-31T05:58:03;11.40;99.90
35593;DHT22;64447;52.140;5.602;2023-03-31T06:00:29;11.30;99.90
35593;DHT22;64447;52.140;5.602;2023-03-31T06:02:55;11.20;99.90
35593;DHT22;64447;52.140;5.602;2023-03-31T06:05:22;11.20;99.90
35593;DHT22;64447;52.140;5.602;2023-03-31T06:07:51;11.20;99.90
35593;DHT22;64447;52.140;5.602;2023-03-31T06:10:18;11.30;99.90
35593;DHT22;64447;52.140;5.602;2023-03-31T06:16:05;11.20;99.90
35593;DHT22;64447;52.140;5.602;2023-03-31T06:18:33;11.10;99.90
35593;DHT22;64447;52.140;5.602;2023-03-31T06:20:59;11.20;99.90
35593;DHT22;64447;52.140;5.602;2023-03-31T06:23:26;11.20;99.90
35593;DHT22;64447;52.140;5.602;2023-03-31T06:25:52;11.10;99.90
35593;DHT22;64447;52.140;5.602;2023-03-31T06:28:19;11.20;99.90
35593;DHT22;64447;52.140;5.602;2023-03-31T06:30:45;11.20;99.90
35593;DHT22;64447;52.140;5.602;2023-03-31T06:33:11;11.20;99.90
35593;DHT22;64447;52.140;5.602;2023-03-31T06:35:38;11.30;99.90
35593;DHT22;64447;52.140;5.602;2023-03-31T06:38:04;11.20;99.90
35593;DHT22;64447;52.140;5.602;2023-03-31T06:40:30;11.30;99.90
35593;DHT22;64447;52.140;5.602;2023-03-31T06:46:18;11.30;99.90
35593;DHT22;64447;52.140;5.602;2023-03-31T06:48:43;11.40;99.90
35593;DHT22;64447;52.140;5.602;2023-03-31T06:51:09;11.40;99.90
35593;DHT22;64447;52.140;5.602;2023-03-31T06:53:35;11.40;99.90
35593;DHT22;64447;52.140;5.602;2023-03-31T06:56:02;11.50;99.90
35593;DHT22;64447;52.140;5.602;2023-03-31T06:58:27;11.50;99.90
35593;DHT22;64447;52.140;5.602;2023-03-31T07:00:53;11.60;99.90
35593;DHT22;64447;52.140;5.602;2023-03-31T07:03:19;11.50;99.90
35593;DHT22;64447;52.140;5.602;2023-03-31T07:05:52;11.50;99.90
35593;DHT22;64447;52.140;5.602;2023-03-31T07:08:18;11.40;99.90
35593;DHT22;64447;52.140;5.602;2023-03-31T07:10:44;11.40;99.90
35593;DHT22;64447;52.140;5.602;2023-03-31T07:16:50;11.40;99.90
35593;DHT22;64447;52.140;5.602;2023-03-31T07:19:16;11.50;99.90
35593;DHT22;64447;52.140;5.602;2023-03-31T07:21:42;11.40;99.90
35593;DHT22;64447;52.140;5.602;2023-03-31T07:24:07;11.60;99.90
35593;DHT22;64447;52.140;5.602;2023-03-31T07:26:33;11.50;99.90
35593;DHT22;64447;52.140;5.602;2023-03-31T07:28:58;11.50;99.90
35593;DHT22;64447;52.140;5.602;2023-03-31T07:31:25;11.70;99.90
35593;DHT22;64447;52.140;5.602;2023-03-31T07:33:50;11.70;99.90
35593;DHT22;64447;52.140;5.602;2023-03-31T07:36:16;11.60;99.90
35593;DHT22;64447;52.140;5.602;2023-03-31T07:38:44;11.60;99.90
35593;DHT22;64447;52.140;5.602;2023-03-31T07:41:16;11.60;99.90
35593;DHT22;64447;52.140;5.602;2023-03-31T07:43:43;11.50;99.90
35593;DHT22;64447;52.140;5.602;2023-03-31T07:48:41;11.60;99.90
35593;DHT22;64447;52.140;5.602;2023-03-31T07:51:08;11.70;99.90
35593;DHT22;64447;52.140;5.602;2023-03-31T07:53:34;11.70;99.90
35593;DHT22;64447;52.140;5.602;2023-03-31T07:56:01;11.80;99.90
35593;DHT22;64447;52.140;5.602;2023-03-31T07:58:26;11.70;99.90
35593;DHT22;64447;52.140;5.602;2023-03-31T08:00:53;11.70;99.90
35593;DHT22;64447;52.140;5.602;2023-03-31T08:03:18;11.70;99.90
35593;DHT22;64447;52.140;5.602;2023-03-31T08:05:44;11.90;99.90
35593;DHT22;64447;52.140;5.602;2023-03-31T08:08:10;11.90;99.90
35593;DHT22;64447;52.140;5.602;2023-03-31T08:10:35;12.00;99.90
35593;DHT22;64447;52.140;5.602;2023-03-31T08:16:23;12.00;99.90
35593;DHT22;64447;52.140;5.602;2023-03-31T08:18:49;12.00;99.90
35593;DHT22;64447;52.140;5.602;2023-03-31T08:21:14;11.80;99.90
35593;DHT22;64447;52.140;5.602;2023-03-31T08:23:40;11.90;99.90
35593;DHT22;64447;52.140;5.602;2023-03-31T08:26:14;11.90;99.90
35593;DHT22;64447;52.140;5.602;2023-03-31T08:28:43;11.90;99.90
35593;DHT22;64447;52.140;5.602;2023-03-31T08:31:09;11.80;99.90
35593;DHT22;64447;52.140;5.602;2023-03-31T08:33:35;12.00;99.90
35593;DHT22;64447;52.140;5.602;2023-03-31T08:36:06;11.90;99.90
35593;DHT22;64447;52.140;5.602;2023-03-31T08:38:38;12.00;99.90
35593;DHT22;64447;52.140;5.602;2023-03-31T08:41:11;12.00;99.90
35593;DHT22;64447;52.140;5.602;2023-03-31T08:43:42;12.00;99.90
35593;DHT22;64447;52.140;5.602;2023-03-31T08:46:11;11.90;99.90
35593;DHT22;64447;52.140;5.602;2023-03-31T08:48:44;11.90;99.90
35593;DHT22;64447;52.140;5.602;2023-03-31T08:51:21;12.00;99.90
35593;DHT22;64447;52.140;5.602;2023-03-31T08:54:11;11.90;99.90
35593;DHT22;64447;52.140;5.602;2023-03-31T08:56:39;12.00;99.90
35593;DHT22;64447;52.140;5.602;2023-03-31T08:59:32;12.40;99.90
35593;DHT22;64447;52.140;5.602;2023-03-31T09:02:03;11.90;99.90
35593;DHT22;64447;52.140;5.602;2023-03-31T09:07:34;11.80;99.90
35593;DHT22;64447;52.140;5.602;2023-03-31T09:13:13;12.00;99.90
35593;DHT22;64447;52.140;5.602;2023-03-31T09:15:49;12.10;99.90
35593;DHT22;64447;52.140;5.602;2023-03-31T09:18:24;12.10;99.90
35593;DHT22;64447;52.140;5.602;2023-03-31T09:20:52;12.10;99.90
35593;DHT22;64447;52.140;5.602;2023-03-31T09:23:24;12.20;99.90
35593;DHT22;64447;52.140;5.602;2023-03-31T09:25:52;12.20;99.90
35593;DHT22;64447;52.140;5.602;2023-03-31T09:28:20;12.30;99.90
35593;DHT22;64447;52.140;5.602;2023-03-31T09:30:47;12.40;99.90
35593;DHT22;64447;52.140;5.602;2023-03-31T09:33:36;12.40;99.90
35593;DHT22;64447;52.140;5.602;2023-03-31T09:36:11;12.50;99.90
35593;DHT22;64447;52.140;5.602;2023-03-31T09:38:40;12.60;99.90
35593;DHT22;64447;52.140;5.602;2023-03-31T09:41:07;12.60;99.90
35593;DHT22;64447;52.140;5.602;2023-03-31T09:43:33;12.70;99.90
35593;DHT22;64447;52.140;5.602;2023-03-31T09:46:00;12.70;99.90
35593;DHT22;64447;52.140;5.602;2023-03-31T09:48:29;12.70;99.90
35593;DHT22;64447;52.140;5.602;2023-03-31T09:50:59;12.80;99.90
35593;DHT22;64447;52.140;5.602;2023-03-31T09:53:37;12.80;99.90
35593;DHT22;64447;52.140;5.602;2023-03-31T09:56:06;12.80;99.90
35593;DHT22;64447;52.140;5.602;2023-03-31T09:58:43;12.80;99.90
35593;DHT22;64447;52.140;5.602;2023-03-31T10:01:11;12.70;99.90
35593;DHT22;64447;52.140;5.602;2023-03-31T10:03:54;12.70;99.90
35593;DHT22;64447;52.140;5.602;2023-03-31T10:06:22;12.60;99.90
35593;DHT22;64447;52.140;5.602;2023-03-31T10:08:54;12.60;99.90
35593;DHT22;64447;52.140;5.602;2023-03-31T10:11:22;12.70;99.90
35593;DHT22;64447;52.140;5.602;2023-03-31T10:19:21;12.70;99.90
35593;DHT22;64447;52.140;5.602;2023-03-31T10:21:48;12.80;99.90
35593;DHT22;64447;52.140;5.602;2023-03-31T10:24:19;12.80;99.90
35593;DHT22;64447;52.140;5.602;2023-03-31T10:30:10;13.00;99.90
35593;DHT22;64447;52.140;5.602;2023-03-31T10:32:42;13.10;99.90
35593;DHT22;64447;52.140;5.602;2023-03-31T10:35:28;13.20;99.90
35593;DHT22;64447;52.140;5.602;2023-03-31T10:38:01;13.30;99.90
35593;DHT22;64447;52.140;5.602;2023-03-31T10:40:30;13.40;99.90
35593;DHT22;64447;52.140;5.602;2023-03-31T10:46:19;13.60;99.90
35593;DHT22;64447;52.140;5.602;2023-03-31T10:48:45;13.70;99.90
35593;DHT22;64447;52.140;5.602;2023-03-31T10:51:20;13.80;99.90
35593;DHT22;64447;52.140;5.602;2023-03-31T10:53:50;13.70;99.90
35593;DHT22;64447;52.140;5.602;2023-03-31T11:02:42;13.80;99.90
35593;DHT22;64447;52.140;5.602;2023-03-31T11:05:32;14.00;99.90
35593;DHT22;64447;52.140;5.602;2023-03-31T11:16:16;13.50;99.90
35593;DHT22;64447;52.140;5.602;2023-03-31T11:21:41;13.30;99.90
35593;DHT22;64447;52.140;5.602;2023-03-31T11:29:34;13.40;99.90
35593;DHT22;64447;52.140;5.602;2023-03-31T11:46:22;13.70;99.90
35593;DHT22;64447;52.140;5.602;2023-03-31T11:49:05;13.50;99.90
35593;DHT22;64447;52.140;5.602;2023-03-31T11:52:02;13.40;99.90
35593;DHT22;64447;52.140;5.602;2023-03-31T11:54:38;13.50;99.90
35593;DHT22;64447;52.140;5.602;2023-03-31T12:00:02;13.50;99.90
35593;DHT22;64447;52.140;5.602;2023-03-31T12:02:50;13.40;99.90
35593;DHT22;64447;52.140;5.602;2023-03-31T12:05:18;13.40;99.90
35593;DHT22;64447;52.140;5.602;2023-03-31T12:07:55;13.40;99.90
35593;DHT22;64447;52.140;5.602;2023-03-31T12:10:36;13.50;99.90
35593;DHT22;64447;52.140;5.602;2023-03-31T12:16:39;13.50;99.90
35593;DHT22;64447;52.140;5.602;2023-03-31T12:22:28;13.80;99.90
35593;DHT22;64447;52.140;5.602;2023-03-31T12:24:54;13.40;99.90
35593;DHT22;64447;52.140;5.602;2023-03-31T12:30:42;13.00;99.90
35593;DHT22;64447;52.140;5.602;2023-03-31T12:33:17;12.80;99.90
35593;DHT22;64447;52.140;5.602;2023-03-31T12:36:11;12.80;99.90
35593;DHT22;64447;52.140;5.602;2023-03-31T12:50:19;12.60;99.90
35593;DHT22;64447;52.140;5.602;2023-03-31T12:55:48;12.80;99.90
35593;DHT22;64447;52.140;5.602;2023-03-31T13:04:32;12.70;99.90
35593;DHT22;64447;52.140;5.602;2023-03-31T13:06:58;12.80;99.90
35593;DHT22;64447;52.140;5.602;2023-03-31T13:09:45;13.00;99.90
35593;DHT22;64447;52.140;5.602;2023-03-31T13:18:50;13.40;99.90
35593;DHT22;64447;52.140;5.602;2023-03-31T13:21:16;13.30;99.90
35593;DHT22;64447;52.140;5.602;2023-03-31T13:23:44;13.30;99.90
35593;DHT22;64447;52.140;5.602;2023-03-31T14:03:28;13.10;99.90
35593;DHT22;64447;52.140;5.602;2023-03-31T14:11:25;13.00;99.90
35593;DHT22;64447;52.140;5.602;2023-03-31T14:14:04;13.00;99.90
35593;DHT22;64447;52.140;5.602;2023-03-31T14:16:35;13.00;99.90
35593;DHT22;64447;52.140;5.602;2023-03-31T14:27:50;12.80;99.90
35593;DHT22;64447;52.140;5.602;2023-03-31T14:31:14;12.90;99.90
35593;DHT22;64447;52.140;5.602;2023-03-31T14:39:27;12.90;99.90
35593;DHT22;64447;52.140;5.602;2023-03-31T14:41:56;12.90;99.90
35593;DHT22;64447;52.140;5.602;2023-03-31T14:44:24;12.90;99.90
35593;DHT22;64447;52.140;5.602;2023-03-31T14:46:50;12.90;99.90
35593;DHT22;64447;52.140;5.602;2023-03-31T14:49:41;12.70;99.90
35593;DHT22;64447;52.140;5.602;2023-03-31T14:52:17;13.20;99.90
35593;DHT22;64447;52.140;5.602;2023-03-31T14:54:46;12.80;99.90
35593;DHT22;64447;52.140;5.602;2023-03-31T14:57:20;12.70;99.90
35593;DHT22;64447;52.140;5.602;2023-03-31T14:59:49;12.60;99.90
35593;DHT22;64447;52.140;5.602;2023-03-31T15:02:22;12.50;99.90
35593;DHT22;64447;52.140;5.602;2023-03-31T15:04:50;12.40;99.90
35593;DHT22;64447;52.140;5.602;2023-03-31T15:07:16;12.50;99.90
35593;DHT22;64447;52.140;5.602;2023-03-31T15:09:47;12.50;99.90
35593;DHT22;64447;52.140;5.602;2023-03-31T15:12:14;12.60;99.90
35593;DHT22;64447;52.140;5.602;2023-03-31T15:14:47;12.40;99.90
35593;DHT22;64447;52.140;5.602;2023-03-31T15:17:24;12.70;99.90
35593;DHT22;64447;52.140;5.602;2023-03-31T15:19:58;12.60;99.90
35593;DHT22;64447;52.140;5.602;2023-03-31T15:22:26;12.80;99.90
35593;DHT22;64447;52.140;5.602;2023-03-31T15:24:53;12.70;99.90
35593;DHT22;64447;52.140;5.602;2023-03-31T15:27:41;12.70;99.90
35593;DHT22;64447;52.140;5.602;2023-03-31T15:30:15;12.60;99.90
35593;DHT22;64447;52.140;5.602;2023-03-31T15:32:42;12.70;99.90
35593;DHT22;64447;52.140;5.602;2023-03-31T15:35:26;12.70;99.90
35593;DHT22;64447;52.140;5.602;2023-03-31T15:37:55;12.60;99.90
35593;DHT22;64447;52.140;5.602;2023-03-31T15:40:47;12.50;99.90
35593;DHT22;64447;52.140;5.602;2023-03-31T15:45:59;12.50;99.90
35593;DHT22;64447;52.140;5.602;2023-03-31T15:48:29;12.40;99.90
35593;DHT22;64447;52.140;5.602;2023-03-31T15:51:24;12.20;99.90
35593;DHT22;64447;52.140;5.602;2023-03-31T15:53:52;12.20;99.90
35593;DHT22;64447;52.140;5.602;2023-03-31T15:56:34;12.40;99.90
35593;DHT22;64447;52.140;5.602;2023-03-31T16:02:26;12.40;99.90
35593;DHT22;64447;52.140;5.602;2023-03-31T16:04:57;12.40;99.90
35593;DHT22;64447;52.140;5.602;2023-03-31T16:07:26;12.50;99.90
35593;DHT22;64447;52.140;5.602;2023-03-31T16:10:09;12.60;99.90
35593;DHT22;64447;52.140;5.602;2023-03-31T16:12:42;12.50;99.90
35593;DHT22;64447;52.140;5.602;2023-03-31T16:18:40;12.70;99.90
35593;DHT22;64447;52.140;5.602;2023-03-31T16:21:08;12.70;99.90
35593;DHT22;64447;52.140;5.602;2023-03-31T16:23:36;12.50;99.90
35593;DHT22;64447;52.140;5.602;2023-03-31T16:26:05;12.40;99.90
35593;DHT22;64447;52.140;5.602;2023-03-31T16:28:34;12.20;99.90
35593;DHT22;64447;52.140;5.602;2023-03-31T16:34:22;12.10;99.90
35593;DHT22;64447;52.140;5.602;2023-03-31T16:36:48;12.00;99.90
35593;DHT22;64447;52.140;5.602;2023-03-31T16:39:13;11.90;99.90
35593;DHT22;64447;52.140;5.602;2023-03-31T16:41:45;11.90;99.90
35593;DHT22;64447;52.140;5.602;2023-03-31T16:44:11;12.00;99.90
35593;DHT22;64447;52.140;5.602;2023-03-31T16:46:36;12.20;99.90
35593;DHT22;64447;52.140;5.602;2023-03-31T16:49:02;12.40;99.90
35593;DHT22;64447;52.140;5.602;2023-03-31T16:51:27;12.30;99.90
35593;DHT22;64447;52.140;5.602;2023-03-31T16:53:53;12.20;99.90
35593;DHT22;64447;52.140;5.602;2023-03-31T16:56:18;12.30;99.90
35593;DHT22;64447;52.140;5.602;2023-03-31T16:58:45;12.30;99.90
35593;DHT22;64447;52.140;5.602;2023-03-31T17:04:33;12.00;99.90
35593;DHT22;64447;52.140;5.602;2023-03-31T17:06:58;12.00;99.90
35593;DHT22;64447;52.140;5.602;2023-03-31T17:09:24;11.90;99.90
35593;DHT22;64447;52.140;5.602;2023-03-31T17:11:49;11.80;99.90
35593;DHT22;64447;52.140;5.602;2023-03-31T17:14:15;11.80;99.90
35593;DHT22;64447;52.140;5.602;2023-03-31T17:20:04;11.90;99.90
35593;DHT22;64447;52.140;5.602;2023-03-31T17:22:31;11.90;99.90
35593;DHT22;64447;52.140;5.602;2023-03-31T17:24:57;12.00;99.90
35593;DHT22;64447;52.140;5.602;2023-03-31T17:27:26;11.80;99.90
35593;DHT22;64447;52.140;5.602;2023-03-31T17:29:53;11.90;99.90
35593;DHT22;64447;52.140;5.602;2023-03-31T17:32:19;11.90;99.90
35593;DHT22;64447;52.140;5.602;2023-03-31T17:34:45;11.80;99.90
35593;DHT22;64447;52.140;5.602;2023-03-31T17:37:13;11.90;99.90
35593;DHT22;64447;52.140;5.602;2023-03-31T17:39:39;11.80;99.90
35593;DHT22;64447;52.140;5.602;2023-03-31T17:42:05;11.60;99.90
35593;DHT22;64447;52.140;5.602;2023-03-31T17:44:30;11.70;99.90
35593;DHT22;64447;52.140;5.602;2023-03-31T17:50:18;11.70;99.90
35593;DHT22;64447;52.140;5.602;2023-03-31T17:52:44;11.50;99.90
35593;DHT22;64447;52.140;5.602;2023-03-31T17:55:09;11.50;99.90
35593;DHT22;64447;52.140;5.602;2023-03-31T17:57:35;11.50;99.90
35593;DHT22;64447;52.140;5.602;2023-03-31T18:00:03;11.60;99.90
35593;DHT22;64447;52.140;5.602;2023-03-31T18:06:11;11.50;99.90
35593;DHT22;64447;52.140;5.602;2023-03-31T18:08:37;11.40;99.90
35593;DHT22;64447;52.140;5.602;2023-03-31T18:11:04;11.50;99.90
35593;DHT22;64447;52.140;5.602;2023-03-31T18:13:32;11.70;99.90
35593;DHT22;64447;52.140;5.602;2023-03-31T18:15:59;11.60;99.90
35593;DHT22;64447;52.140;5.602;2023-03-31T18:18:25;11.90;99.90
35593;DHT22;64447;52.140;5.602;2023-03-31T18:20:52;11.60;99.90
35593;DHT22;64447;52.140;5.602;2023-03-31T18:23:18;11.70;99.90
35593;DHT22;64447;52.140;5.602;2023-03-31T18:25:44;11.70;99.90
35593;DHT22;64447;52.140;5.602;2023-03-31T18:28:12;11.70;99.90
35593;DHT22;64447;52.140;5.602;2023-03-31T18:30:38;11.90;99.90
35593;DHT22;64447;52.140;5.602;2023-03-31T18:33:04;11.50;99.90
35593;DHT22;64447;52.140;5.602;2023-03-31T18:35:29;11.50;99.90
35593;DHT22;64447;52.140;5.602;2023-03-31T18:37:55;11.60;99.90
35593;DHT22;64447;52.140;5.602;2023-03-31T18:40:21;11.40;99.90
35593;DHT22;64447;52.140;5.602;2023-03-31T18:42:48;11.40;99.90
35593;DHT22;64447;52.140;5.602;2023-03-31T18:45:14;11.40;99.90
35593;DHT22;64447;52.140;5.602;2023-03-31T18:51:02;11.50;99.90
35593;DHT22;64447;52.140;5.602;2023-03-31T18:53:28;11.70;99.90
35593;DHT22;64447;52.140;5.602;2023-03-31T18:55:57;11.60;99.90
35593;DHT22;64447;52.140;5.602;2023-03-31T18:58:24;11.50;99.90
35593;DHT22;64447;52.140;5.602;2023-03-31T19:00:50;11.50;99.90
35593;DHT22;64447;52.140;5.602;2023-03-31T19:03:15;11.50;99.90
35593;DHT22;64447;52.140;5.602;2023-03-31T19:05:42;11.40;99.90
35593;DHT22;64447;52.140;5.602;2023-03-31T19:08:07;11.40;99.90
35593;DHT22;64447;52.140;5.602;2023-03-31T19:10:33;11.40;99.90
35593;DHT22;64447;52.140;5.602;2023-03-31T19:12:59;11.30;99.90
35593;DHT22;64447;52.140;5.602;2023-03-31T19:15:24;11.30;99.90
35593;DHT22;64447;52.140;5.602;2023-03-31T19:21:13;11.40;99.90
35593;DHT22;64447;52.140;5.602;2023-03-31T19:23:39;11.40;99.90
35593;DHT22;64447;52.140;5.602;2023-03-31T19:26:05;11.50;99.90
35593;DHT22;64447;52.140;5.602;2023-03-31T19:28:31;11.50;99.90
35593;DHT22;64447;52.140;5.602;2023-03-31T19:30:57;11.50;99.90
35593;DHT22;64447;52.140;5.602;2023-03-31T19:33:24;11.50;99.90
35593;DHT22;64447;52.140;5.602;2023-03-31T19:35:50;11.40;99.90
35593;DHT22;64447;52.140;5.602;2023-03-31T19:38:16;11.50;99.90
35593;DHT22;64447;52.140;5.602;2023-03-31T19:40:42;11.50;99.90
35593;DHT22;64447;52.140;5.602;2023-03-31T19:43:19;11.50;99.90
35593;DHT22;64447;52.140;5.602;2023-03-31T19:45:49;11.50;99.90
35593;DHT22;64447;52.140;5.602;2023-03-31T19:48:16;11.50;99.90
35593;DHT22;64447;52.140;5.602;2023-03-31T19:50:55;11.40;99.90
35593;DHT22;64447;52.140;5.602;2023-03-31T19:53:22;11.40;99.90
35593;DHT22;64447;52.140;5.602;2023-03-31T19:55:58;11.40;99.90
35593;DHT22;64447;52.140;5.602;2023-03-31T19:58:24;11.40;99.90
35593;DHT22;64447;52.140;5.602;2023-03-31T20:00:51;11.40;99.90
35593;DHT22;64447;52.140;5.602;2023-03-31T20:03:17;11.40;99.90
35593;DHT22;64447;52.140;5.602;2023-03-31T20:05:44;11.40;99.90
35593;DHT22;64447;52.140;5.602;2023-03-31T20:08:09;11.40;99.90
35593;DHT22;64447;52.140;5.602;2023-03-31T20:10:35;11.50;99.90
35593;DHT22;64447;52.140;5.602;2023-03-31T20:13:01;11.40;99.90
35593;DHT22;64447;52.140;5.602;2023-03-31T20:15:27;11.40;99.90
35593;DHT22;64447;52.140;5.602;2023-03-31T20:21:16;11.40;99.90
35593;DHT22;64447;52.140;5.602;2023-03-31T20:23:43;11.30;99.90
35593;DHT22;64447;52.140;5.602;2023-03-31T20:26:11;11.30;99.90
35593;DHT22;64447;52.140;5.602;2023-03-31T20:28:38;11.30;99.90
35593;DHT22;64447;52.140;5.602;2023-03-31T20:31:08;11.30;99.90